Terminal Aerodrome Forecast
Issued by NWS

Current Version | Previous Version | Graphics & Text | Print | Product List | Glossary Off
Versions: 1 2 3 4 5 6 7 8 9 10 11 12 13 14 15 16 17 18 19 20 21 22 23 24 25 26

035
FTUS41 KPBZ 041319 AAA
TAFMGW
TAF AMD
KMGW 041319Z 0413/0512 00000KT 4SM -RA BR SCT026 OVC050
     FM041500 VRB03KT P6SM VCSH BKN050
     FM050200 00000KT 3SM -SHRA OVC020
     FM050600 00000KT 3SM -SHRA BR OVC015=

USA.gov is the U.S. government's official web portal to all federal, state and local government web resources and services.